sensor_id;sensor_type;location;lat;lon;timestamp;temperature;humidity
23783;DHT22;12071;50.850;4.446;2022-08-07T00:00:09;16.40;99.90
23783;DHT22;12071;50.850;4.446;2022-08-07T00:02:35;16.40;99.90
23783;DHT22;12071;50.850;4.446;2022-08-07T00:05:01;16.30;99.90
23783;DHT22;12071;50.850;4.446;2022-08-07T00:07:26;16.30;99.90
23783;DHT22;12071;50.850;4.446;2022-08-07T00:09:52;16.30;99.90
23783;DHT22;12071;50.850;4.446;2022-08-07T00:12:17;16.40;99.90
23783;DHT22;12071;50.850;4.446;2022-08-07T00:14:43;16.50;99.90
23783;DHT22;12071;50.850;4.446;2022-08-07T00:17:09;16.30;99.90
23783;DHT22;12071;50.850;4.446;2022-08-07T00:19:34;16.40;99.90
23783;DHT22;12071;50.850;4.446;2022-08-07T00:22:00;16.30;99.90
23783;DHT22;12071;50.850;4.446;2022-08-07T00:24:26;16.20;99.90
23783;DHT22;12071;50.850;4.446;2022-08-07T00:26:51;16.20;99.90
23783;DHT22;12071;50.850;4.446;2022-08-07T00:29:17;16.20;99.90
23783;DHT22;12071;50.850;4.446;2022-08-07T00:31:44;16.20;99.90
23783;DHT22;12071;50.850;4.446;2022-08-07T00:34:09;16.00;1.00
23783;DHT22;12071;50.850;4.446;2022-08-07T00:36:36;16.00;1.00
23783;DHT22;12071;50.850;4.446;2022-08-07T00:39:02;16.00;1.00
23783;DHT22;12071;50.850;4.446;2022-08-07T00:41:32;16.00;1.00
23783;DHT22;12071;50.850;4.446;2022-08-07T00:43:58;16.00;1.00
23783;DHT22;12071;50.850;4.446;2022-08-07T00:46:23;16.00;1.00
23783;DHT22;12071;50.850;4.446;2022-08-07T00:48:50;16.00;1.00
23783;DHT22;12071;50.850;4.446;2022-08-07T00:51:16;15.90;1.00
23783;DHT22;12071;50.850;4.446;2022-08-07T00:53:41;16.00;1.00
23783;DHT22;12071;50.850;4.446;2022-08-07T00:56:07;15.90;21.30
23783;DHT22;12071;50.850;4.446;2022-08-07T00:58:36;15.70;93.40
23783;DHT22;12071;50.850;4.446;2022-08-07T01:01:01;15.80;99.90
23783;DHT22;12071;50.850;4.446;2022-08-07T01:03:27;15.80;99.90
23783;DHT22;12071;50.850;4.446;2022-08-07T01:05:54;15.80;99.90
23783;DHT22;12071;50.850;4.446;2022-08-07T01:08:21;15.80;99.90
23783;DHT22;12071;50.850;4.446;2022-08-07T01:10:47;15.70;99.90
23783;DHT22;12071;50.850;4.446;2022-08-07T01:13:12;15.70;99.90
23783;DHT22;12071;50.850;4.446;2022-08-07T01:15:38;15.50;99.90
23783;DHT22;12071;50.850;4.446;2022-08-07T01:18:05;15.60;99.90
23783;DHT22;12071;50.850;4.446;2022-08-07T01:20:36;15.60;99.90
23783;DHT22;12071;50.850;4.446;2022-08-07T01:23:03;15.50;99.90
23783;DHT22;12071;50.850;4.446;2022-08-07T01:25:29;15.60;99.90
23783;DHT22;12071;50.850;4.446;2022-08-07T01:27:55;15.50;99.90
23783;DHT22;12071;50.850;4.446;2022-08-07T01:30:23;15.30;99.90
23783;DHT22;12071;50.850;4.446;2022-08-07T01:32:49;15.30;99.90
23783;DHT22;12071;50.850;4.446;2022-08-07T01:35:14;15.20;99.90
23783;DHT22;12071;50.850;4.446;2022-08-07T01:37:40;15.20;99.90
23783;DHT22;12071;50.850;4.446;2022-08-07T01:40:07;15.20;99.90
23783;DHT22;12071;50.850;4.446;2022-08-07T01:42:34;15.20;99.90
23783;DHT22;12071;50.850;4.446;2022-08-07T01:45:00;15.20;99.90
23783;DHT22;12071;50.850;4.446;2022-08-07T01:47:26;15.00;99.90
23783;DHT22;12071;50.850;4.446;2022-08-07T01:49:52;15.10;99.90
23783;DHT22;12071;50.850;4.446;2022-08-07T01:52:18;15.10;99.90
23783;DHT22;12071;50.850;4.446;2022-08-07T01:54:45;15.20;99.90
23783;DHT22;12071;50.850;4.446;2022-08-07T01:57:23;15.20;99.90
23783;DHT22;12071;50.850;4.446;2022-08-07T02:00:11;15.10;99.90
23783;DHT22;12071;50.850;4.446;2022-08-07T02:02:42;15.00;99.90
23783;DHT22;12071;50.850;4.446;2022-08-07T02:05:12;15.00;99.90
23783;DHT22;12071;50.850;4.446;2022-08-07T02:07:49;15.00;99.90
23783;DHT22;12071;50.850;4.446;2022-08-07T02:10:17;15.00;99.90
23783;DHT22;12071;50.850;4.446;2022-08-07T02:12:47;14.90;99.90
23783;DHT22;12071;50.850;4.446;2022-08-07T02:15:16;14.90;1.00
23783;DHT22;12071;50.850;4.446;2022-08-07T02:17:45;14.80;1.00
23783;DHT22;12071;50.850;4.446;2022-08-07T02:20:13;14.90;1.00
23783;DHT22;12071;50.850;4.446;2022-08-07T02:22:39;15.00;1.00
23783;DHT22;12071;50.850;4.446;2022-08-07T02:25:07;15.20;99.90
23783;DHT22;12071;50.850;4.446;2022-08-07T02:27:34;14.90;1.00
23783;DHT22;12071;50.850;4.446;2022-08-07T02:30:02;14.80;1.00
23783;DHT22;12071;50.850;4.446;2022-08-07T02:32:28;14.80;1.00
23783;DHT22;12071;50.850;4.446;2022-08-07T02:34:56;14.90;1.00
23783;DHT22;12071;50.850;4.446;2022-08-07T02:37:22;14.90;1.00
23783;DHT22;12071;50.850;4.446;2022-08-07T02:39:49;15.00;1.00
23783;DHT22;12071;50.850;4.446;2022-08-07T02:42:16;14.90;1.00
23783;DHT22;12071;50.850;4.446;2022-08-07T02:44:45;14.80;1.00
23783;DHT22;12071;50.850;4.446;2022-08-07T02:47:12;14.80;1.00
23783;DHT22;12071;50.850;4.446;2022-08-07T02:49:39;14.80;1.00
23783;DHT22;12071;50.850;4.446;2022-08-07T02:52:08;15.00;1.00
23783;DHT22;12071;50.850;4.446;2022-08-07T02:54:39;14.90;1.00
23783;DHT22;12071;50.850;4.446;2022-08-07T02:57:07;14.90;1.00
23783;DHT22;12071;50.850;4.446;2022-08-07T02:59:36;14.80;1.00
23783;DHT22;12071;50.850;4.446;2022-08-07T03:02:03;15.00;1.00
23783;DHT22;12071;50.850;4.446;2022-08-07T03:04:29;14.80;1.00
23783;DHT22;12071;50.850;4.446;2022-08-07T03:06:55;14.60;1.00
23783;DHT22;12071;50.850;4.446;2022-08-07T03:09:21;14.50;1.00
23783;DHT22;12071;50.850;4.446;2022-08-07T03:11:48;14.50;1.00
23783;DHT22;12071;50.850;4.446;2022-08-07T03:14:14;14.60;1.00
23783;DHT22;12071;50.850;4.446;2022-08-07T03:16:41;14.50;1.00
23783;DHT22;12071;50.850;4.446;2022-08-07T03:19:07;14.40;1.00
23783;DHT22;12071;50.850;4.446;2022-08-07T03:21:33;14.70;1.00
23783;DHT22;12071;50.850;4.446;2022-08-07T03:23:59;14.60;1.00
23783;DHT22;12071;50.850;4.446;2022-08-07T03:26:29;14.50;1.00
23783;DHT22;12071;50.850;4.446;2022-08-07T03:28:57;14.10;1.00
23783;DHT22;12071;50.850;4.446;2022-08-07T03:31:26;14.00;1.00
23783;DHT22;12071;50.850;4.446;2022-08-07T03:33:55;14.10;1.00
23783;DHT22;12071;50.850;4.446;2022-08-07T03:36:24;14.10;1.00
23783;DHT22;12071;50.850;4.446;2022-08-07T03:38:52;14.10;1.00
23783;DHT22;12071;50.850;4.446;2022-08-07T03:41:18;14.20;1.00
23783;DHT22;12071;50.850;4.446;2022-08-07T03:43:44;14.40;1.00
23783;DHT22;12071;50.850;4.446;2022-08-07T03:46:12;14.60;1.00
23783;DHT22;12071;50.850;4.446;2022-08-07T03:48:38;14.40;1.00
23783;DHT22;12071;50.850;4.446;2022-08-07T03:51:04;14.10;1.00
23783;DHT22;12071;50.850;4.446;2022-08-07T03:53:31;14.00;1.00
23783;DHT22;12071;50.850;4.446;2022-08-07T03:55:58;13.90;1.00
23783;DHT22;12071;50.850;4.446;2022-08-07T03:58:25;13.80;1.00
23783;DHT22;12071;50.850;4.446;2022-08-07T04:00:53;13.80;1.00
23783;DHT22;12071;50.850;4.446;2022-08-07T04:03:20;14.00;1.00
23783;DHT22;12071;50.850;4.446;2022-08-07T04:05:46;13.90;1.00
23783;DHT22;12071;50.850;4.446;2022-08-07T04:08:13;13.90;1.00
23783;DHT22;12071;50.850;4.446;2022-08-07T04:10:40;13.90;1.00
23783;DHT22;12071;50.850;4.446;2022-08-07T04:13:07;14.00;1.00
23783;DHT22;12071;50.850;4.446;2022-08-07T04:15:33;14.00;1.00
23783;DHT22;12071;50.850;4.446;2022-08-07T04:18:00;14.10;1.00
23783;DHT22;12071;50.850;4.446;2022-08-07T04:20:26;14.00;1.00
23783;DHT22;12071;50.850;4.446;2022-08-07T04:45:13;13.90;1.00
23783;DHT22;12071;50.850;4.446;2022-08-07T04:50:38;14.20;1.00
23783;DHT22;12071;50.850;4.446;2022-08-07T04:53:18;14.30;1.00
23783;DHT22;12071;50.850;4.446;2022-08-07T04:56:23;14.50;1.00
23783;DHT22;12071;50.850;4.446;2022-08-07T05:05:21;14.10;1.00
23783;DHT22;12071;50.850;4.446;2022-08-07T05:08:09;14.10;1.00
23783;DHT22;12071;50.850;4.446;2022-08-07T05:10:40;14.40;1.00
23783;DHT22;12071;50.850;4.446;2022-08-07T05:13:29;14.60;1.00
23783;DHT22;12071;50.850;4.446;2022-08-07T05:16:03;14.50;1.00
23783;DHT22;12071;50.850;4.446;2022-08-07T05:18:31;14.40;1.00
23783;DHT22;12071;50.850;4.446;2022-08-07T05:21:01;14.20;1.00
23783;DHT22;12071;50.850;4.446;2022-08-07T05:23:50;14.30;1.00
23783;DHT22;12071;50.850;4.446;2022-08-07T05:26:20;14.50;1.00
23783;DHT22;12071;50.850;4.446;2022-08-07T05:28:59;14.50;1.00
23783;DHT22;12071;50.850;4.446;2022-08-07T05:38:57;14.60;1.00
23783;DHT22;12071;50.850;4.446;2022-08-07T05:44:19;14.80;1.00
23783;DHT22;12071;50.850;4.446;2022-08-07T05:47:09;14.90;1.00
23783;DHT22;12071;50.850;4.446;2022-08-07T05:49:50;15.00;1.00
23783;DHT22;12071;50.850;4.446;2022-08-07T05:52:17;15.00;1.00
23783;DHT22;12071;50.850;4.446;2022-08-07T05:54:43;14.90;1.00
23783;DHT22;12071;50.850;4.446;2022-08-07T05:57:09;15.10;1.00
23783;DHT22;12071;50.850;4.446;2022-08-07T05:59:37;15.30;1.00
23783;DHT22;12071;50.850;4.446;2022-08-07T06:02:18;15.60;1.00
23783;DHT22;12071;50.850;4.446;2022-08-07T06:05:02;15.70;1.00
23783;DHT22;12071;50.850;4.446;2022-08-07T06:07:50;16.00;1.00
23783;DHT22;12071;50.850;4.446;2022-08-07T06:10:22;15.90;1.00
23783;DHT22;12071;50.850;4.446;2022-08-07T06:16:00;15.60;1.00
23783;DHT22;12071;50.850;4.446;2022-08-07T06:21:44;15.70;1.00
23783;DHT22;12071;50.850;4.446;2022-08-07T06:24:29;16.10;1.00
23783;DHT22;12071;50.850;4.446;2022-08-07T06:30:27;16.00;1.00
23783;DHT22;12071;50.850;4.446;2022-08-07T06:32:53;16.20;1.00
23783;DHT22;12071;50.850;4.446;2022-08-07T06:35:18;16.30;1.00
23783;DHT22;12071;50.850;4.446;2022-08-07T06:37:44;16.30;1.00
23783;DHT22;12071;50.850;4.446;2022-08-07T06:40:09;16.50;1.00
23783;DHT22;12071;50.850;4.446;2022-08-07T06:42:36;16.40;1.00
23783;DHT22;12071;50.850;4.446;2022-08-07T06:45:09;16.40;1.00
23783;DHT22;12071;50.850;4.446;2022-08-07T06:47:36;16.50;1.00
23783;DHT22;12071;50.850;4.446;2022-08-07T06:50:19;16.60;1.00
23783;DHT22;12071;50.850;4.446;2022-08-07T06:52:48;16.70;1.00
23783;DHT22;12071;50.850;4.446;2022-08-07T06:55:18;16.70;1.00
23783;DHT22;12071;50.850;4.446;2022-08-07T06:57:46;16.80;99.90
23783;DHT22;12071;50.850;4.446;2022-08-07T07:00:17;16.80;99.90
23783;DHT22;12071;50.850;4.446;2022-08-07T07:02:46;17.00;99.90
23783;DHT22;12071;50.850;4.446;2022-08-07T07:05:23;17.00;99.90
23783;DHT22;12071;50.850;4.446;2022-08-07T07:07:48;17.00;99.90
23783;DHT22;12071;50.850;4.446;2022-08-07T07:10:32;17.20;99.90
23783;DHT22;12071;50.850;4.446;2022-08-07T07:16:17;17.30;99.90
23783;DHT22;12071;50.850;4.446;2022-08-07T07:18:52;17.40;99.90
23783;DHT22;12071;50.850;4.446;2022-08-07T07:21:36;17.50;99.90
23783;DHT22;12071;50.850;4.446;2022-08-07T07:24:09;17.60;99.90
23783;DHT22;12071;50.850;4.446;2022-08-07T07:26:36;17.70;99.90
23783;DHT22;12071;50.850;4.446;2022-08-07T07:29:13;17.90;99.90
23783;DHT22;12071;50.850;4.446;2022-08-07T07:31:46;18.00;99.90
23783;DHT22;12071;50.850;4.446;2022-08-07T07:34:27;18.00;99.90
23783;DHT22;12071;50.850;4.446;2022-08-07T07:37:02;17.90;99.90
23783;DHT22;12071;50.850;4.446;2022-08-07T07:39:43;17.80;99.90
23783;DHT22;12071;50.850;4.446;2022-08-07T07:42:29;17.80;99.90
23783;DHT22;12071;50.850;4.446;2022-08-07T07:47:36;17.90;99.90
23783;DHT22;12071;50.850;4.446;2022-08-07T07:50:31;17.80;99.90
23783;DHT22;12071;50.850;4.446;2022-08-07T07:53:03;17.70;99.90
23783;DHT22;12071;50.850;4.446;2022-08-07T07:55:56;17.80;99.90
23783;DHT22;12071;50.850;4.446;2022-08-07T07:58:41;18.10;99.90
23783;DHT22;12071;50.850;4.446;2022-08-07T08:01:36;18.10;99.90
23783;DHT22;12071;50.850;4.446;2022-08-07T08:04:17;18.00;99.90
23783;DHT22;12071;50.850;4.446;2022-08-07T08:09:51;18.00;55.70
23783;DHT22;12071;50.850;4.446;2022-08-07T08:15:49;18.30;21.10
23783;DHT22;12071;50.850;4.446;2022-08-07T08:18:49;18.50;29.00
23783;DHT22;12071;50.850;4.446;2022-08-07T08:21:26;18.70;1.00
23783;DHT22;12071;50.850;4.446;2022-08-07T08:24:13;18.60;1.00
23783;DHT22;12071;50.850;4.446;2022-08-07T08:26:59;18.80;1.00
23783;DHT22;12071;50.850;4.446;2022-08-07T08:30:12;19.10;99.90
23783;DHT22;12071;50.850;4.446;2022-08-07T08:33:05;19.10;99.90
23783;DHT22;12071;50.850;4.446;2022-08-07T08:39:21;19.40;99.90
23783;DHT22;12071;50.850;4.446;2022-08-07T08:42:14;19.60;99.90
23783;DHT22;12071;50.850;4.446;2022-08-07T08:44:52;19.70;55.50
23783;DHT22;12071;50.850;4.446;2022-08-07T08:50:47;19.70;99.90
23783;DHT22;12071;50.850;4.446;2022-08-07T08:53:29;19.90;1.00
23783;DHT22;12071;50.850;4.446;2022-08-07T08:56:36;20.00;1.00
23783;DHT22;12071;50.850;4.446;2022-08-07T09:07:54;19.80;99.90
23783;DHT22;12071;50.850;4.446;2022-08-07T09:10:44;20.40;99.90
23783;DHT22;12071;50.850;4.446;2022-08-07T09:25:37;20.80;99.90
23783;DHT22;12071;50.850;4.446;2022-08-07T09:28:43;20.90;99.90
23783;DHT22;12071;50.850;4.446;2022-08-07T09:31:53;21.00;1.00
23783;DHT22;12071;50.850;4.446;2022-08-07T09:35:05;20.90;1.00
23783;DHT22;12071;50.850;4.446;2022-08-07T09:53:27;21.70;99.90
23783;DHT22;12071;50.850;4.446;2022-08-07T09:56:56;21.80;99.90
23783;DHT22;12071;50.850;4.446;2022-08-07T10:02:41;22.10;99.90
23783;DHT22;12071;50.850;4.446;2022-08-07T10:24:26;22.60;1.00
23783;DHT22;12071;50.850;4.446;2022-08-07T10:46:26;22.40;99.90
23783;DHT22;12071;50.850;4.446;2022-08-07T10:52:06;22.90;1.00
23783;DHT22;12071;50.850;4.446;2022-08-07T10:55:56;22.80;1.00
23783;DHT22;12071;50.850;4.446;2022-08-07T11:10:55;23.10;98.70
23783;DHT22;12071;50.850;4.446;2022-08-07T11:13:31;23.70;99.90
23783;DHT22;12071;50.850;4.446;2022-08-07T11:16:09;24.00;46.90
23783;DHT22;12071;50.850;4.446;2022-08-07T11:19:28;23.70;91.80
23783;DHT22;12071;50.850;4.446;2022-08-07T11:25:50;24.20;1.00
23783;DHT22;12071;50.850;4.446;2022-08-07T11:38:38;23.80;1.00
23783;DHT22;12071;50.850;4.446;2022-08-07T11:41:38;23.50;99.90
23783;DHT22;12071;50.850;4.446;2022-08-07T11:44:31;23.80;99.90
23783;DHT22;12071;50.850;4.446;2022-08-07T11:50:06;23.90;99.90
23783;DHT22;12071;50.850;4.446;2022-08-07T11:56:05;23.80;1.00
23783;DHT22;12071;50.850;4.446;2022-08-07T12:23:53;24.30;99.90
23783;DHT22;12071;50.850;4.446;2022-08-07T12:30:07;24.60;99.90
23783;DHT22;12071;50.850;4.446;2022-08-07T12:33:16;25.10;99.90
23783;DHT22;12071;50.850;4.446;2022-08-07T12:36:20;25.30;99.90
23783;DHT22;12071;50.850;4.446;2022-08-07T12:55:38;24.70;99.90
23783;DHT22;12071;50.850;4.446;2022-08-07T13:09:26;25.10;99.90
23783;DHT22;12071;50.850;4.446;2022-08-07T13:12:41;25.50;99.90
23783;DHT22;12071;50.850;4.446;2022-08-07T13:25:28;25.90;83.90
23783;DHT22;12071;50.850;4.446;2022-08-07T13:38:21;28.90;1.00
23783;DHT22;12071;50.850;4.446;2022-08-07T14:02:45;34.50;1.00
23783;DHT22;12071;50.850;4.446;2022-08-07T14:09:35;32.00;1.00
23783;DHT22;12071;50.850;4.446;2022-08-07T14:37:17;36.60;1.00
23783;DHT22;12071;50.850;4.446;2022-08-07T14:47:29;37.70;1.00
23783;DHT22;12071;50.850;4.446;2022-08-07T14:50:53;37.90;1.00
23783;DHT22;12071;50.850;4.446;2022-08-07T14:56:30;39.40;1.00
23783;DHT22;12071;50.850;4.446;2022-08-07T14:59:23;38.90;1.00
23783;DHT22;12071;50.850;4.446;2022-08-07T15:05:24;39.10;1.00
23783;DHT22;12071;50.850;4.446;2022-08-07T15:11:34;40.20;1.00
23783;DHT22;12071;50.850;4.446;2022-08-07T15:21:03;40.90;1.00
23783;DHT22;12071;50.850;4.446;2022-08-07T15:23:48;40.60;1.00
23783;DHT22;12071;50.850;4.446;2022-08-07T15:33:02;40.40;1.00
23783;DHT22;12071;50.850;4.446;2022-08-07T15:36:12;39.50;1.00
23783;DHT22;12071;50.850;4.446;2022-08-07T15:39:33;39.10;1.00
23783;DHT22;12071;50.850;4.446;2022-08-07T15:49:15;37.80;1.00
23783;DHT22;12071;50.850;4.446;2022-08-07T15:55:50;38.40;1.00
23783;DHT22;12071;50.850;4.446;2022-08-07T15:58:51;37.90;1.00
23783;DHT22;12071;50.850;4.446;2022-08-07T16:01:37;38.50;1.00
23783;DHT22;12071;50.850;4.446;2022-08-07T16:04:33;37.70;1.00
23783;DHT22;12071;50.850;4.446;2022-08-07T16:14:22;38.20;1.00
23783;DHT22;12071;50.850;4.446;2022-08-07T16:57:35;35.90;1.00
23783;DHT22;12071;50.850;4.446;2022-08-07T17:07:55;34.40;1.00
23783;DHT22;12071;50.850;4.446;2022-08-07T17:16:11;34.30;1.00
23783;DHT22;12071;50.850;4.446;2022-08-07T17:18:46;35.30;1.00
23783;DHT22;12071;50.850;4.446;2022-08-07T17:22:02;35.30;1.00
23783;DHT22;12071;50.850;4.446;2022-08-07T17:27:28;34.60;1.00
23783;DHT22;12071;50.850;4.446;2022-08-07T17:32:38;32.80;1.00
23783;DHT22;12071;50.850;4.446;2022-08-07T17:35:17;33.30;1.00
23783;DHT22;12071;50.850;4.446;2022-08-07T17:40:34;32.70;1.00
23783;DHT22;12071;50.850;4.446;2022-08-07T17:43:12;32.40;1.00
23783;DHT22;12071;50.850;4.446;2022-08-07T17:45:58;32.00;1.00
23783;DHT22;12071;50.850;4.446;2022-08-07T17:49:00;31.20;1.00
23783;DHT22;12071;50.850;4.446;2022-08-07T17:51:42;30.40;1.00
23783;DHT22;12071;50.850;4.446;2022-08-07T17:57:29;28.80;1.00
23783;DHT22;12071;50.850;4.446;2022-08-07T18:00:01;27.90;53.60
23783;DHT22;12071;50.850;4.446;2022-08-07T18:02:52;27.30;99.90
23783;DHT22;12071;50.850;4.446;2022-08-07T18:05:30;26.80;99.90
23783;DHT22;12071;50.850;4.446;2022-08-07T18:13:35;26.20;99.90
23783;DHT22;12071;50.850;4.446;2022-08-07T18:16:29;26.10;99.90
23783;DHT22;12071;50.850;4.446;2022-08-07T18:19:28;25.70;1.00
23783;DHT22;12071;50.850;4.446;2022-08-07T18:24:35;25.50;1.00
23783;DHT22;12071;50.850;4.446;2022-08-07T18:30:15;25.60;1.00
23783;DHT22;12071;50.850;4.446;2022-08-07T18:36:20;24.90;99.90
23783;DHT22;12071;50.850;4.446;2022-08-07T18:41:24;24.80;99.90
23783;DHT22;12071;50.850;4.446;2022-08-07T18:47:16;24.50;1.00
23783;DHT22;12071;50.850;4.446;2022-08-07T18:53:00;24.40;99.90
23783;DHT22;12071;50.850;4.446;2022-08-07T18:58:37;24.00;56.50
23783;DHT22;12071;50.850;4.446;2022-08-07T19:03:52;23.90;87.10
23783;DHT22;12071;50.850;4.446;2022-08-07T19:06:46;23.90;99.90
23783;DHT22;12071;50.850;4.446;2022-08-07T19:09:38;24.00;62.20
23783;DHT22;12071;50.850;4.446;2022-08-07T19:12:17;23.70;99.90
23783;DHT22;12071;50.850;4.446;2022-08-07T19:15:24;23.50;99.90
23783;DHT22;12071;50.850;4.446;2022-08-07T19:23:38;23.20;1.00
23783;DHT22;12071;50.850;4.446;2022-08-07T19:26:09;23.30;99.90
23783;DHT22;12071;50.850;4.446;2022-08-07T19:28:49;23.10;1.00
23783;DHT22;12071;50.850;4.446;2022-08-07T19:31:25;23.00;1.00
23783;DHT22;12071;50.850;4.446;2022-08-07T19:33:52;23.10;1.00
23783;DHT22;12071;50.850;4.446;2022-08-07T19:36:19;22.90;1.00
23783;DHT22;12071;50.850;4.446;2022-08-07T19:38:51;22.80;29.10
23783;DHT22;12071;50.850;4.446;2022-08-07T19:41:21;22.70;99.90
23783;DHT22;12071;50.850;4.446;2022-08-07T19:43:48;22.70;1.00
23783;DHT22;12071;50.850;4.446;2022-08-07T19:46:17;22.70;1.00
23783;DHT22;12071;50.850;4.446;2022-08-07T19:48:49;22.60;99.90
23783;DHT22;12071;50.850;4.446;2022-08-07T19:51:17;22.40;99.90
23783;DHT22;12071;50.850;4.446;2022-08-07T19:53:50;22.30;1.00
23783;DHT22;12071;50.850;4.446;2022-08-07T19:56:17;22.30;99.90
23783;DHT22;12071;50.850;4.446;2022-08-07T19:58:45;22.30;99.90
23783;DHT22;12071;50.850;4.446;2022-08-07T20:01:17;22.30;99.90
23783;DHT22;12071;50.850;4.446;2022-08-07T20:03:44;22.30;1.00
23783;DHT22;12071;50.850;4.446;2022-08-07T20:06:11;22.10;99.90
23783;DHT22;12071;50.850;4.446;2022-08-07T20:08:39;22.10;1.00
23783;DHT22;12071;50.850;4.446;2022-08-07T20:11:15;21.90;99.90
23783;DHT22;12071;50.850;4.446;2022-08-07T20:13:50;21.80;1.00
23783;DHT22;12071;50.850;4.446;2022-08-07T20:16:27;21.90;99.90
23783;DHT22;12071;50.850;4.446;2022-08-07T20:18:54;21.80;99.90
23783;DHT22;12071;50.850;4.446;2022-08-07T20:21:21;21.80;1.00
23783;DHT22;12071;50.850;4.446;2022-08-07T20:23:56;21.90;99.90
23783;DHT22;12071;50.850;4.446;2022-08-07T20:26:27;21.90;1.00
23783;DHT22;12071;50.850;4.446;2022-08-07T20:28:56;21.70;99.90
23783;DHT22;12071;50.850;4.446;2022-08-07T20:31:24;21.80;1.00
23783;DHT22;12071;50.850;4.446;2022-08-07T20:33:56;21.80;18.10
23783;DHT22;12071;50.850;4.446;2022-08-07T20:36:24;21.70;1.00
23783;DHT22;12071;50.850;4.446;2022-08-07T20:38:53;21.70;91.50
23783;DHT22;12071;50.850;4.446;2022-08-07T20:41:23;21.70;99.90
23783;DHT22;12071;50.850;4.446;2022-08-07T20:43:51;21.50;99.90
23783;DHT22;12071;50.850;4.446;2022-08-07T20:46:20;21.40;99.90
23783;DHT22;12071;50.850;4.446;2022-08-07T20:48:49;21.40;1.00
23783;DHT22;12071;50.850;4.446;2022-08-07T20:51:24;21.30;1.00
23783;DHT22;12071;50.850;4.446;2022-08-07T20:53:51;21.20;1.00
23783;DHT22;12071;50.850;4.446;2022-08-07T20:56:19;21.20;21.80
23783;DHT22;12071;50.850;4.446;2022-08-07T20:58:46;21.20;99.90
23783;DHT22;12071;50.850;4.446;2022-08-07T21:01:16;21.20;78.50
23783;DHT22;12071;50.850;4.446;2022-08-07T21:03:47;21.00;99.90
23783;DHT22;12071;50.850;4.446;2022-08-07T21:06:16;21.00;99.90
23783;DHT22;12071;50.850;4.446;2022-08-07T21:08:43;21.00;99.90
23783;DHT22;12071;50.850;4.446;2022-08-07T21:11:13;20.90;1.00
23783;DHT22;12071;50.850;4.446;2022-08-07T21:13:45;20.80;1.00
23783;DHT22;12071;50.850;4.446;2022-08-07T21:16:14;20.90;1.00
23783;DHT22;12071;50.850;4.446;2022-08-07T21:18:40;20.70;1.00
23783;DHT22;12071;50.850;4.446;2022-08-07T21:21:07;20.60;99.90
23783;DHT22;12071;50.850;4.446;2022-08-07T21:23:59;20.40;99.90
23783;DHT22;12071;50.850;4.446;2022-08-07T21:26:42;20.30;99.90
23783;DHT22;12071;50.850;4.446;2022-08-07T21:29:14;20.30;1.00
23783;DHT22;12071;50.850;4.446;2022-08-07T21:32:01;20.20;1.00
23783;DHT22;12071;50.850;4.446;2022-08-07T21:34:54;20.10;1.00
23783;DHT22;12071;50.850;4.446;2022-08-07T21:37:30;20.20;7.80
23783;DHT22;12071;50.850;4.446;2022-08-07T21:42:37;20.00;1.00
23783;DHT22;12071;50.850;4.446;2022-08-07T21:45:11;19.90;99.90
23783;DHT22;12071;50.850;4.446;2022-08-07T21:50:26;19.80;99.90
23783;DHT22;12071;50.850;4.446;2022-08-07T21:53:15;20.00;99.90
23783;DHT22;12071;50.850;4.446;2022-08-07T21:56:02;20.00;99.90
23783;DHT22;12071;50.850;4.446;2022-08-07T22:01:09;19.80;99.90
23783;DHT22;12071;50.850;4.446;2022-08-07T22:03:41;19.80;99.90
23783;DHT22;12071;50.850;4.446;2022-08-07T22:06:16;19.80;99.90
23783;DHT22;12071;50.850;4.446;2022-08-07T22:08:54;19.80;99.90
23783;DHT22;12071;50.850;4.446;2022-08-07T22:11:21;19.90;99.90
23783;DHT22;12071;50.850;4.446;2022-08-07T22:13:53;19.80;99.90
23783;DHT22;12071;50.850;4.446;2022-08-07T22:16:29;19.90;99.90
23783;DHT22;12071;50.850;4.446;2022-08-07T22:19:04;19.80;99.90
23783;DHT22;12071;50.850;4.446;2022-08-07T22:21:45;19.70;99.90
23783;DHT22;12071;50.850;4.446;2022-08-07T22:24:21;19.70;99.90
23783;DHT22;12071;50.850;4.446;2022-08-07T22:27:47;19.70;99.90
23783;DHT22;12071;50.850;4.446;2022-08-07T22:29:57;19.60;1.00
23783;DHT22;12071;50.850;4.446;2022-08-07T22:35:11;19.30;1.00
23783;DHT22;12071;50.850;4.446;2022-08-07T22:38:02;19.20;1.00
23783;DHT22;12071;50.850;4.446;2022-08-07T22:40:51;19.20;99.90
23783;DHT22;12071;50.850;4.446;2022-08-07T22:43:38;19.20;99.90
23783;DHT22;12071;50.850;4.446;2022-08-07T22:46:25;19.20;59.80
23783;DHT22;12071;50.850;4.446;2022-08-07T23:03:45;18.70;99.90
23783;DHT22;12071;50.850;4.446;2022-08-07T23:06:39;18.60;1.00
23783;DHT22;12071;50.850;4.446;2022-08-07T23:11:49;18.40;1.00
23783;DHT22;12071;50.850;4.446;2022-08-07T23:14:25;18.40;4.30
23783;DHT22;12071;50.850;4.446;2022-08-07T23:31:11;17.90;99.90
23783;DHT22;12071;50.850;4.446;2022-08-07T23:41:43;17.90;1.00
23783;DHT22;12071;50.850;4.446;2022-08-07T23:44:36;17.90;1.00
23783;DHT22;12071;50.850;4.446;2022-08-07T23:47:42;17.70;1.00
23783;DHT22;12071;50.850;4.446;2022-08-07T23:50:32;17.70;1.00
23783;DHT22;12071;50.850;4.446;2022-08-07T23:56:07;17.50;73.40
